sensor_id;sensor_type;location;lat;lon;timestamp;noise_LAeq;noise_LA_min;noise_LA_max;noise_LA01;noise_LA95
18377;Laerm;9315;52.624;13.544;2023-09-19T00:00:49;59.16;40.81;78.89;;
18377;Laerm;9315;52.624;13.544;2023-09-19T00:03:17;54.56;40.83;74.48;;
18377;Laerm;9315;52.624;13.544;2023-09-19T00:05:44;43.79;38.51;51.08;;
18377;Laerm;9315;52.624;13.544;2023-09-19T00:08:13;60.54;39.56;72.60;;
18377;Laerm;9315;52.624;13.544;2023-09-19T00:10:43;46.20;41.11;63.85;;
18377;Laerm;9315;52.624;13.544;2023-09-19T00:13:12;55.71;41.55;71.29;;
18377;Laerm;9315;52.624;13.544;2023-09-19T00:15:48;57.95;39.90;74.77;;
18377;Laerm;9315;52.624;13.544;2023-09-19T00:18:19;44.12;39.05;53.78;;
18377;Laerm;9315;52.624;13.544;2023-09-19T00:20:51;45.02;40.56;52.52;;
18377;Laerm;9315;52.624;13.544;2023-09-19T00:23:20;56.94;40.84;72.81;;
18377;Laerm;9315;52.624;13.544;2023-09-19T00:25:48;57.14;40.12;74.06;;
18377;Laerm;9315;52.624;13.544;2023-09-19T00:28:18;43.70;38.85;51.79;;
18377;Laerm;9315;52.624;13.544;2023-09-19T00:30:46;56.00;39.70;74.66;;
18377;Laerm;9315;52.624;13.544;2023-09-19T00:33:22;53.96;40.74;70.93;;
18377;Laerm;9315;52.624;13.544;2023-09-19T00:35:53;55.63;37.47;72.69;;
18377;Laerm;9315;52.624;13.544;2023-09-19T00:38:22;52.46;39.35;70.57;;
18377;Laerm;9315;52.624;13.544;2023-09-19T00:40:55;43.32;38.23;51.09;;
18377;Laerm;9315;52.624;13.544;2023-09-19T00:43:27;43.52;39.27;49.84;;
18377;Laerm;9315;52.624;13.544;2023-09-19T00:45:56;52.52;38.63;70.71;;
18377;Laerm;9315;52.624;13.544;2023-09-19T00:48:25;57.83;38.37;74.08;;
18377;Laerm;9315;52.624;13.544;2023-09-19T00:50:55;55.99;38.07;75.41;;
18377;Laerm;9315;52.624;13.544;2023-09-19T00:53:24;50.32;38.56;68.48;;
18377;Laerm;9315;52.624;13.544;2023-09-19T00:55:52;57.69;40.95;72.42;;
18377;Laerm;9315;52.624;13.544;2023-09-19T00:58:20;60.37;40.95;74.56;;
18377;Laerm;9315;52.624;13.544;2023-09-19T01:00:51;61.27;41.39;78.59;;
18377;Laerm;9315;52.624;13.544;2023-09-19T01:03:20;53.15;39.89;71.25;;
18377;Laerm;9315;52.624;13.544;2023-09-19T01:05:49;56.23;41.46;73.11;;
18377;Laerm;9315;52.624;13.544;2023-09-19T01:08:17;55.15;41.27;71.65;;
18377;Laerm;9315;52.624;13.544;2023-09-19T01:11:20;58.53;40.84;76.09;;
18377;Laerm;9315;52.624;13.544;2023-09-19T01:17:46;45.33;40.67;53.68;;
18377;Laerm;9315;52.624;13.544;2023-09-19T01:20:35;45.32;41.18;50.53;;
18377;Laerm;9315;52.624;13.544;2023-09-19T01:26:31;56.31;40.86;74.35;;
18377;Laerm;9315;52.624;13.544;2023-09-19T01:29:50;61.00;37.06;79.38;;
18377;Laerm;9315;52.624;13.544;2023-09-19T01:32:21;55.97;40.45;73.10;;
18377;Laerm;9315;52.624;13.544;2023-09-19T01:34:56;55.79;40.25;73.07;;
18377;Laerm;9315;52.624;13.544;2023-09-19T01:37:25;56.88;40.60;73.57;;
18377;Laerm;9315;52.624;13.544;2023-09-19T01:43:06;58.29;42.86;72.03;;
18377;Laerm;9315;52.624;13.544;2023-09-19T01:46:15;60.66;42.27;76.06;;
18377;Laerm;9315;52.624;13.544;2023-09-19T01:51:46;55.72;39.51;75.26;;
18377;Laerm;9315;52.624;13.544;2023-09-19T01:54:26;54.61;41.26;74.36;;
18377;Laerm;9315;52.624;13.544;2023-09-19T01:57:35;60.45;42.54;76.24;;
18377;Laerm;9315;52.624;13.544;2023-09-19T02:00:10;52.68;39.08;69.67;;
18377;Laerm;9315;52.624;13.544;2023-09-19T02:02:43;61.09;41.68;78.19;;
18377;Laerm;9315;52.624;13.544;2023-09-19T02:05:11;57.40;40.34;71.92;;
18377;Laerm;9315;52.624;13.544;2023-09-19T02:07:39;57.87;39.56;70.65;;
18377;Laerm;9315;52.624;13.544;2023-09-19T02:10:08;57.04;40.96;74.55;;
18377;Laerm;9315;52.624;13.544;2023-09-19T02:12:37;55.97;40.71;73.01;;
18377;Laerm;9315;52.624;13.544;2023-09-19T02:15:06;60.89;41.62;76.00;;
18377;Laerm;9315;52.624;13.544;2023-09-19T02:17:34;58.97;41.06;74.57;;
18377;Laerm;9315;52.624;13.544;2023-09-19T02:20:01;61.20;43.14;72.97;;
18377;Laerm;9315;52.624;13.544;2023-09-19T02:22:37;57.10;42.49;73.08;;
18377;Laerm;9315;52.624;13.544;2023-09-19T02:25:06;63.46;43.11;78.48;;
18377;Laerm;9315;52.624;13.544;2023-09-19T02:27:34;60.06;41.92;75.56;;
18377;Laerm;9315;52.624;13.544;2023-09-19T02:30:02;61.13;41.30;75.00;;
18377;Laerm;9315;52.624;13.544;2023-09-19T02:32:30;62.50;42.49;75.39;;
18377;Laerm;9315;52.624;13.544;2023-09-19T02:35:05;63.65;43.86;76.88;;
18377;Laerm;9315;52.624;13.544;2023-09-19T02:37:33;64.08;44.19;76.36;;
18377;Laerm;9315;52.624;13.544;2023-09-19T02:40:00;55.67;42.84;71.36;;
18377;Laerm;9315;52.624;13.544;2023-09-19T02:42:27;62.32;43.61;76.08;;
18377;Laerm;9315;52.624;13.544;2023-09-19T02:44:55;64.69;44.57;77.00;;
18377;Laerm;9315;52.624;13.544;2023-09-19T02:47:23;61.23;43.52;76.40;;
18377;Laerm;9315;52.624;13.544;2023-09-19T02:49:51;61.06;43.87;71.99;;
18377;Laerm;9315;52.624;13.544;2023-09-19T02:52:18;61.86;44.79;73.68;;
18377;Laerm;9315;52.624;13.544;2023-09-19T02:54:46;58.92;44.24;73.09;;
18377;Laerm;9315;52.624;13.544;2023-09-19T02:57:13;63.25;44.86;75.05;;
18377;Laerm;9315;52.624;13.544;2023-09-19T02:59:41;60.86;43.19;74.63;;
18377;Laerm;9315;52.624;13.544;2023-09-19T03:02:09;62.81;45.97;74.00;;
18377;Laerm;9315;52.624;13.544;2023-09-19T03:04:36;66.45;43.82;74.73;;
18377;Laerm;9315;52.624;13.544;2023-09-19T03:07:04;63.85;45.71;74.14;;
18377;Laerm;9315;52.624;13.544;2023-09-19T03:09:31;66.26;45.10;77.90;;
18377;Laerm;9315;52.624;13.544;2023-09-19T03:11:58;67.65;43.42;84.64;;
18377;Laerm;9315;52.624;13.544;2023-09-19T03:14:27;66.73;44.64;81.23;;
18377;Laerm;9315;52.624;13.544;2023-09-19T03:17:02;66.09;47.34;77.80;;
18377;Laerm;9315;52.624;13.544;2023-09-19T03:19:32;67.38;47.78;78.57;;
18377;Laerm;9315;52.624;13.544;2023-09-19T03:22:00;64.19;46.72;75.23;;
18377;Laerm;9315;52.624;13.544;2023-09-19T03:24:50;67.23;47.30;80.27;;
18377;Laerm;9315;52.624;13.544;2023-09-19T03:27:17;66.09;47.81;75.61;;
18377;Laerm;9315;52.624;13.544;2023-09-19T03:29:45;67.77;47.16;79.15;;
18377;Laerm;9315;52.624;13.544;2023-09-19T03:32:12;66.49;47.39;76.48;;
18377;Laerm;9315;52.624;13.544;2023-09-19T03:34:40;64.23;46.94;74.26;;
18377;Laerm;9315;52.624;13.544;2023-09-19T03:37:07;66.28;47.23;76.24;;
18377;Laerm;9315;52.624;13.544;2023-09-19T03:39:35;65.29;47.99;75.41;;
18377;Laerm;9315;52.624;13.544;2023-09-19T03:42:03;66.43;48.73;77.76;;
18377;Laerm;9315;52.624;13.544;2023-09-19T03:44:31;67.69;52.73;76.45;;
18377;Laerm;9315;52.624;13.544;2023-09-19T03:46:58;66.46;49.21;77.58;;
18377;Laerm;9315;52.624;13.544;2023-09-19T03:49:25;66.99;47.31;80.48;;
18377;Laerm;9315;52.624;13.544;2023-09-19T03:51:53;64.90;47.22;78.00;;
18377;Laerm;9315;52.624;13.544;2023-09-19T03:54:20;68.69;47.59;78.40;;
18377;Laerm;9315;52.624;13.544;2023-09-19T03:56:47;64.58;46.51;77.44;;
18377;Laerm;9315;52.624;13.544;2023-09-19T03:59:17;61.83;45.11;72.82;;
18377;Laerm;9315;52.624;13.544;2023-09-19T04:01:45;67.26;47.84;76.88;;
18377;Laerm;9315;52.624;13.544;2023-09-19T04:04:13;64.43;46.68;75.96;;
18377;Laerm;9315;52.624;13.544;2023-09-19T04:06:45;67.31;47.40;78.30;;
18377;Laerm;9315;52.624;13.544;2023-09-19T04:09:13;65.01;46.94;74.54;;
18377;Laerm;9315;52.624;13.544;2023-09-19T04:11:40;67.23;49.16;77.54;;
18377;Laerm;9315;52.624;13.544;2023-09-19T04:14:08;68.31;47.76;77.83;;
18377;Laerm;9315;52.624;13.544;2023-09-19T04:16:37;66.30;48.73;76.99;;
18377;Laerm;9315;52.624;13.544;2023-09-19T04:19:06;68.59;50.38;80.18;;
18377;Laerm;9315;52.624;13.544;2023-09-19T04:21:33;68.91;52.54;77.43;;
18377;Laerm;9315;52.624;13.544;2023-09-19T04:24:01;69.84;49.03;80.05;;
18377;Laerm;9315;52.624;13.544;2023-09-19T04:26:28;69.68;51.93;81.31;;
18377;Laerm;9315;52.624;13.544;2023-09-19T04:28:58;67.55;47.78;80.00;;
18377;Laerm;9315;52.624;13.544;2023-09-19T04:31:25;67.16;48.48;78.21;;
18377;Laerm;9315;52.624;13.544;2023-09-19T04:33:53;69.70;48.24;79.40;;
18377;Laerm;9315;52.624;13.544;2023-09-19T04:36:20;69.76;52.19;82.45;;
18377;Laerm;9315;52.624;13.544;2023-09-19T04:39:02;68.00;49.59;78.44;;
18377;Laerm;9315;52.624;13.544;2023-09-19T04:41:41;70.49;51.51;82.05;;
18377;Laerm;9315;52.624;13.544;2023-09-19T04:44:08;69.78;50.08;82.28;;
18377;Laerm;9315;52.624;13.544;2023-09-19T04:46:37;69.42;49.15;83.32;;
18377;Laerm;9315;52.624;13.544;2023-09-19T04:49:04;68.23;49.55;78.29;;
18377;Laerm;9315;52.624;13.544;2023-09-19T04:51:32;69.59;50.42;79.39;;
18377;Laerm;9315;52.624;13.544;2023-09-19T04:54:01;68.19;50.08;76.95;;
18377;Laerm;9315;52.624;13.544;2023-09-19T04:56:29;68.54;49.68;80.14;;
18377;Laerm;9315;52.624;13.544;2023-09-19T04:58:58;69.02;48.54;77.20;;
18377;Laerm;9315;52.624;13.544;2023-09-19T05:01:26;68.73;49.73;78.46;;
18377;Laerm;9315;52.624;13.544;2023-09-19T05:03:54;68.94;48.32;76.64;;
18377;Laerm;9315;52.624;13.544;2023-09-19T05:06:22;70.95;52.51;82.37;;
18377;Laerm;9315;52.624;13.544;2023-09-19T05:08:50;68.88;51.63;81.63;;
18377;Laerm;9315;52.624;13.544;2023-09-19T05:11:19;68.65;52.21;77.81;;
18377;Laerm;9315;52.624;13.544;2023-09-19T05:13:49;72.80;55.05;87.17;;
18377;Laerm;9315;52.624;13.544;2023-09-19T05:16:23;69.12;51.24;81.86;;
18377;Laerm;9315;52.624;13.544;2023-09-19T05:18:50;69.79;49.33;82.82;;
18377;Laerm;9315;52.624;13.544;2023-09-19T05:21:17;69.32;52.09;77.96;;
18377;Laerm;9315;52.624;13.544;2023-09-19T05:23:45;68.81;49.97;78.92;;
18377;Laerm;9315;52.624;13.544;2023-09-19T05:26:13;69.31;51.29;76.48;;
18377;Laerm;9315;52.624;13.544;2023-09-19T05:28:43;68.57;49.76;77.33;;
18377;Laerm;9315;52.624;13.544;2023-09-19T05:31:10;67.83;49.45;76.98;;
18377;Laerm;9315;52.624;13.544;2023-09-19T05:33:37;69.74;49.42;80.47;;
18377;Laerm;9315;52.624;13.544;2023-09-19T05:36:05;70.69;51.12;82.77;;
18377;Laerm;9315;52.624;13.544;2023-09-19T05:38:32;69.52;51.62;76.80;;
18377;Laerm;9315;52.624;13.544;2023-09-19T05:41:00;68.83;50.05;79.57;;
18377;Laerm;9315;52.624;13.544;2023-09-19T05:43:29;68.51;49.53;80.02;;
18377;Laerm;9315;52.624;13.544;2023-09-19T05:45:56;69.70;53.98;79.66;;
18377;Laerm;9315;52.624;13.544;2023-09-19T05:48:23;68.86;50.30;87.23;;
18377;Laerm;9315;52.624;13.544;2023-09-19T05:50:50;69.89;51.48;80.16;;
18377;Laerm;9315;52.624;13.544;2023-09-19T05:53:17;67.86;50.05;76.45;;
18377;Laerm;9315;52.624;13.544;2023-09-19T05:55:45;70.39;50.68;82.23;;
18377;Laerm;9315;52.624;13.544;2023-09-19T05:58:13;68.47;51.30;76.73;;
18377;Laerm;9315;52.624;13.544;2023-09-19T06:00:45;68.27;50.00;77.68;;
18377;Laerm;9315;52.624;13.544;2023-09-19T06:03:14;70.85;50.81;82.18;;
18377;Laerm;9315;52.624;13.544;2023-09-19T06:05:42;69.22;49.80;76.45;;
18377;Laerm;9315;52.624;13.544;2023-09-19T06:08:09;69.21;51.87;78.39;;
18377;Laerm;9315;52.624;13.544;2023-09-19T06:10:36;68.33;49.50;78.14;;
18377;Laerm;9315;52.624;13.544;2023-09-19T06:13:04;70.67;52.94;81.10;;
18377;Laerm;9315;52.624;13.544;2023-09-19T06:15:32;68.72;48.06;81.78;;
18377;Laerm;9315;52.624;13.544;2023-09-19T06:18:00;68.17;50.39;83.67;;
18377;Laerm;9315;52.624;13.544;2023-09-19T06:20:29;68.66;52.43;79.65;;
18377;Laerm;9315;52.624;13.544;2023-09-19T06:22:57;69.37;50.47;80.10;;
18377;Laerm;9315;52.624;13.544;2023-09-19T06:25:24;69.13;52.11;79.49;;
18377;Laerm;9315;52.624;13.544;2023-09-19T06:27:53;70.43;52.50;83.31;;
18377;Laerm;9315;52.624;13.544;2023-09-19T06:30:24;67.21;50.19;75.34;;
18377;Laerm;9315;52.624;13.544;2023-09-19T06:32:59;68.99;49.97;77.69;;
18377;Laerm;9315;52.624;13.544;2023-09-19T06:35:33;68.93;50.86;83.11;;
18377;Laerm;9315;52.624;13.544;2023-09-19T06:38:04;69.40;49.65;79.48;;
18377;Laerm;9315;52.624;13.544;2023-09-19T06:40:34;68.78;48.83;77.66;;
18377;Laerm;9315;52.624;13.544;2023-09-19T06:43:02;68.80;49.70;81.75;;
18377;Laerm;9315;52.624;13.544;2023-09-19T06:45:30;68.88;48.54;77.60;;
18377;Laerm;9315;52.624;13.544;2023-09-19T06:47:59;69.68;49.77;81.03;;
18377;Laerm;9315;52.624;13.544;2023-09-19T06:50:27;69.23;49.26;83.10;;
18377;Laerm;9315;52.624;13.544;2023-09-19T06:52:55;68.61;48.83;81.00;;
18377;Laerm;9315;52.624;13.544;2023-09-19T06:55:25;68.97;49.81;80.69;;
18377;Laerm;9315;52.624;13.544;2023-09-19T06:57:56;70.62;54.88;82.78;;
18377;Laerm;9315;52.624;13.544;2023-09-19T07:00:23;68.23;46.49;77.33;;
18377;Laerm;9315;52.624;13.544;2023-09-19T07:03:07;69.38;46.95;80.20;;
18377;Laerm;9315;52.624;13.544;2023-09-19T07:05:36;67.32;52.16;76.24;;
18377;Laerm;9315;52.624;13.544;2023-09-19T07:08:08;69.59;52.12;84.93;;
18377;Laerm;9315;52.624;13.544;2023-09-19T07:10:40;68.43;49.27;79.12;;
18377;Laerm;9315;52.624;13.544;2023-09-19T07:13:10;69.50;51.48;81.39;;
18377;Laerm;9315;52.624;13.544;2023-09-19T07:15:39;70.43;50.07;82.73;;
18377;Laerm;9315;52.624;13.544;2023-09-19T07:18:09;71.96;49.75;87.36;;
18377;Laerm;9315;52.624;13.544;2023-09-19T07:20:38;67.17;48.20;78.02;;
18377;Laerm;9315;52.624;13.544;2023-09-19T07:23:05;70.56;54.57;81.11;;
18377;Laerm;9315;52.624;13.544;2023-09-19T07:25:34;69.90;47.71;80.22;;
18377;Laerm;9315;52.624;13.544;2023-09-19T07:28:02;68.78;46.61;80.54;;
18377;Laerm;9315;52.624;13.544;2023-09-19T07:30:30;67.78;49.46;80.93;;
18377;Laerm;9315;52.624;13.544;2023-09-19T07:32:58;68.21;51.06;80.14;;
18377;Laerm;9315;52.624;13.544;2023-09-19T07:35:25;66.66;51.18;77.91;;
18377;Laerm;9315;52.624;13.544;2023-09-19T07:37:52;69.99;50.36;79.97;;
18377;Laerm;9315;52.624;13.544;2023-09-19T07:40:20;68.21;47.22;80.19;;
18377;Laerm;9315;52.624;13.544;2023-09-19T07:42:48;67.34;48.33;78.26;;
18377;Laerm;9315;52.624;13.544;2023-09-19T07:45:16;69.40;50.57;81.68;;
18377;Laerm;9315;52.624;13.544;2023-09-19T07:47:50;68.48;49.81;84.52;;
18377;Laerm;9315;52.624;13.544;2023-09-19T07:50:19;67.38;46.94;81.64;;
18377;Laerm;9315;52.624;13.544;2023-09-19T07:52:48;68.53;47.12;77.89;;
18377;Laerm;9315;52.624;13.544;2023-09-19T07:55:19;67.37;51.59;80.32;;
18377;Laerm;9315;52.624;13.544;2023-09-19T07:57:52;69.73;50.46;80.83;;
18377;Laerm;9315;52.624;13.544;2023-09-19T08:00:20;65.98;47.58;76.94;;
18377;Laerm;9315;52.624;13.544;2023-09-19T08:02:47;68.05;48.09;83.24;;
18377;Laerm;9315;52.624;13.544;2023-09-19T08:05:24;67.27;48.20;77.88;;
18377;Laerm;9315;52.624;13.544;2023-09-19T08:07:52;70.00;49.94;83.27;;
18377;Laerm;9315;52.624;13.544;2023-09-19T08:10:21;69.67;49.18;79.07;;
18377;Laerm;9315;52.624;13.544;2023-09-19T08:12:49;67.49;48.59;75.64;;
18377;Laerm;9315;52.624;13.544;2023-09-19T08:15:23;67.69;47.54;79.22;;
18377;Laerm;9315;52.624;13.544;2023-09-19T08:17:51;69.91;49.40;83.29;;
18377;Laerm;9315;52.624;13.544;2023-09-19T08:20:18;66.90;51.50;76.10;;
18377;Laerm;9315;52.624;13.544;2023-09-19T08:22:52;67.91;47.50;80.23;;
18377;Laerm;9315;52.624;13.544;2023-09-19T08:25:23;70.51;50.23;83.45;;
18377;Laerm;9315;52.624;13.544;2023-09-19T08:27:52;68.99;53.94;77.74;;
18377;Laerm;9315;52.624;13.544;2023-09-19T08:30:21;72.31;52.48;89.61;;
18377;Laerm;9315;52.624;13.544;2023-09-19T08:33:01;69.01;50.08;80.67;;
18377;Laerm;9315;52.624;13.544;2023-09-19T08:35:28;67.67;50.42;77.53;;
18377;Laerm;9315;52.624;13.544;2023-09-19T08:37:56;68.77;48.27;81.03;;
18377;Laerm;9315;52.624;13.544;2023-09-19T08:40:24;69.08;49.65;81.68;;
18377;Laerm;9315;52.624;13.544;2023-09-19T08:42:56;69.30;51.24;79.69;;
18377;Laerm;9315;52.624;13.544;2023-09-19T08:45:25;66.03;49.44;76.35;;
18377;Laerm;9315;52.624;13.544;2023-09-19T08:48:22;70.14;49.73;84.81;;
18377;Laerm;9315;52.624;13.544;2023-09-19T08:51:12;68.15;48.47;76.83;;
18377;Laerm;9315;52.624;13.544;2023-09-19T08:54:07;71.07;48.93;85.35;;
18377;Laerm;9315;52.624;13.544;2023-09-19T08:56:34;67.87;48.64;77.80;;
18377;Laerm;9315;52.624;13.544;2023-09-19T08:59:07;68.71;49.35;81.09;;
18377;Laerm;9315;52.624;13.544;2023-09-19T09:01:38;69.41;51.33;79.44;;
18377;Laerm;9315;52.624;13.544;2023-09-19T09:04:09;67.83;51.33;77.95;;
18377;Laerm;9315;52.624;13.544;2023-09-19T09:06:41;68.08;52.29;79.72;;
18377;Laerm;9315;52.624;13.544;2023-09-19T09:09:20;66.84;48.08;77.05;;
18377;Laerm;9315;52.624;13.544;2023-09-19T09:11:48;68.37;49.11;80.24;;
18377;Laerm;9315;52.624;13.544;2023-09-19T09:14:20;69.37;47.17;82.27;;
18377;Laerm;9315;52.624;13.544;2023-09-19T09:16:49;68.15;47.81;80.76;;
18377;Laerm;9315;52.624;13.544;2023-09-19T09:19:17;68.13;49.21;78.27;;
18377;Laerm;9315;52.624;13.544;2023-09-19T09:21:51;68.37;48.72;79.78;;
18377;Laerm;9315;52.624;13.544;2023-09-19T09:24:29;68.37;48.01;79.21;;
18377;Laerm;9315;52.624;13.544;2023-09-19T09:26:57;68.07;46.92;81.52;;
18377;Laerm;9315;52.624;13.544;2023-09-19T09:29:46;67.84;49.23;78.26;;
18377;Laerm;9315;52.624;13.544;2023-09-19T09:32:29;68.55;46.42;77.20;;
18377;Laerm;9315;52.624;13.544;2023-09-19T09:35:02;66.57;46.21;75.98;;
18377;Laerm;9315;52.624;13.544;2023-09-19T09:37:31;68.78;46.16;79.43;;
18377;Laerm;9315;52.624;13.544;2023-09-19T09:40:02;68.56;45.97;78.19;;
18377;Laerm;9315;52.624;13.544;2023-09-19T09:42:41;67.42;49.44;76.07;;
18377;Laerm;9315;52.624;13.544;2023-09-19T09:45:24;66.86;49.02;74.42;;
18377;Laerm;9315;52.624;13.544;2023-09-19T09:48:01;68.27;51.42;77.35;;
18377;Laerm;9315;52.624;13.544;2023-09-19T09:50:48;67.60;47.98;75.27;;
18377;Laerm;9315;52.624;13.544;2023-09-19T09:53:29;69.03;53.20;80.31;;
18377;Laerm;9315;52.624;13.544;2023-09-19T09:56:04;68.21;51.32;78.56;;
18377;Laerm;9315;52.624;13.544;2023-09-19T09:58:50;67.68;46.62;79.07;;
18377;Laerm;9315;52.624;13.544;2023-09-19T10:01:21;67.04;51.51;80.03;;
18377;Laerm;9315;52.624;13.544;2023-09-19T10:04:00;68.84;53.05;81.33;;
18377;Laerm;9315;52.624;13.544;2023-09-19T10:06:41;67.67;52.12;79.79;;
18377;Laerm;9315;52.624;13.544;2023-09-19T10:09:14;69.01;48.76;78.33;;
18377;Laerm;9315;52.624;13.544;2023-09-19T10:12:00;69.71;50.65;80.32;;
18377;Laerm;9315;52.624;13.544;2023-09-19T10:14:34;69.89;51.60;83.50;;
18377;Laerm;9315;52.624;13.544;2023-09-19T10:17:05;69.15;49.46;80.28;;
18377;Laerm;9315;52.624;13.544;2023-09-19T10:20:17;69.71;53.32;80.24;;
18377;Laerm;9315;52.624;13.544;2023-09-19T10:22:53;69.25;52.41;84.85;;
18377;Laerm;9315;52.624;13.544;2023-09-19T10:25:27;68.90;51.10;78.48;;
18377;Laerm;9315;52.624;13.544;2023-09-19T10:28:01;66.98;49.52;76.80;;
18377;Laerm;9315;52.624;13.544;2023-09-19T10:30:47;68.02;51.44;77.17;;
18377;Laerm;9315;52.624;13.544;2023-09-19T10:33:20;66.65;51.05;76.06;;
18377;Laerm;9315;52.624;13.544;2023-09-19T10:35:51;69.79;54.95;79.23;;
18377;Laerm;9315;52.624;13.544;2023-09-19T10:38:23;71.78;52.56;88.84;;
18377;Laerm;9315;52.624;13.544;2023-09-19T10:40:54;69.09;50.06;81.40;;
18377;Laerm;9315;52.624;13.544;2023-09-19T10:43:30;66.93;52.55;77.01;;
18377;Laerm;9315;52.624;13.544;2023-09-19T10:46:07;68.72;55.13;78.06;;
18377;Laerm;9315;52.624;13.544;2023-09-19T10:48:39;67.76;51.18;77.01;;
18377;Laerm;9315;52.624;13.544;2023-09-19T10:51:20;68.55;53.40;78.09;;
18377;Laerm;9315;52.624;13.544;2023-09-19T10:54:12;68.02;50.36;77.53;;
18377;Laerm;9315;52.624;13.544;2023-09-19T10:56:48;68.18;50.32;79.80;;
18377;Laerm;9315;52.624;13.544;2023-09-19T10:59:20;67.75;48.53;77.72;;
18377;Laerm;9315;52.624;13.544;2023-09-19T11:01:57;69.78;49.42;81.97;;
18377;Laerm;9315;52.624;13.544;2023-09-19T11:04:33;67.80;50.95;77.53;;
18377;Laerm;9315;52.624;13.544;2023-09-19T11:07:13;67.42;50.83;78.70;;
18377;Laerm;9315;52.624;13.544;2023-09-19T11:09:56;69.75;50.14;78.93;;
18377;Laerm;9315;52.624;13.544;2023-09-19T11:15:01;69.18;53.14;81.72;;
18377;Laerm;9315;52.624;13.544;2023-09-19T11:17:44;67.73;54.26;77.82;;
18377;Laerm;9315;52.624;13.544;2023-09-19T11:28:28;67.50;49.97;77.20;;
18377;Laerm;9315;52.624;13.544;2023-09-19T11:30:55;69.30;50.42;79.12;;
18377;Laerm;9315;52.624;13.544;2023-09-19T11:33:28;68.38;49.61;79.49;;
18377;Laerm;9315;52.624;13.544;2023-09-19T11:36:14;67.68;49.46;79.96;;
18377;Laerm;9315;52.624;13.544;2023-09-19T11:46:28;66.41;47.75;76.82;;
18377;Laerm;9315;52.624;13.544;2023-09-19T11:49:07;69.19;48.94;81.15;;
18377;Laerm;9315;52.624;13.544;2023-09-19T11:51:43;70.78;50.62;88.93;;
18377;Laerm;9315;52.624;13.544;2023-09-19T11:54:15;68.49;50.87;78.79;;
18377;Laerm;9315;52.624;13.544;2023-09-19T11:56:51;68.36;51.82;77.34;;
18377;Laerm;9315;52.624;13.544;2023-09-19T11:59:29;69.56;49.29;81.16;;
18377;Laerm;9315;52.624;13.544;2023-09-19T12:02:06;69.05;49.26;79.26;;
18377;Laerm;9315;52.624;13.544;2023-09-19T12:04:41;67.97;51.33;78.31;;
18377;Laerm;9315;52.624;13.544;2023-09-19T12:07:16;67.67;50.01;78.69;;
18377;Laerm;9315;52.624;13.544;2023-09-19T12:09:50;70.54;51.32;82.35;;
18377;Laerm;9315;52.624;13.544;2023-09-19T12:12:31;68.81;47.24;83.11;;
18377;Laerm;9315;52.624;13.544;2023-09-19T12:15:00;69.93;50.16;79.35;;
18377;Laerm;9315;52.624;13.544;2023-09-19T12:17:39;69.60;48.71;79.48;;
18377;Laerm;9315;52.624;13.544;2023-09-19T12:20:11;69.16;49.77;79.37;;
18377;Laerm;9315;52.624;13.544;2023-09-19T12:22:45;69.12;52.08;78.26;;
18377;Laerm;9315;52.624;13.544;2023-09-19T12:25:15;68.89;51.54;79.36;;
18377;Laerm;9315;52.624;13.544;2023-09-19T12:27:49;69.80;49.33;80.06;;
18377;Laerm;9315;52.624;13.544;2023-09-19T12:30:21;67.90;49.03;77.42;;
18377;Laerm;9315;52.624;13.544;2023-09-19T12:32:54;70.20;48.85;83.93;;
18377;Laerm;9315;52.624;13.544;2023-09-19T12:35:31;67.78;50.53;76.71;;
18377;Laerm;9315;52.624;13.544;2023-09-19T12:38:03;69.75;52.26;78.12;;
18377;Laerm;9315;52.624;13.544;2023-09-19T12:40:31;67.97;48.27;77.66;;
18377;Laerm;9315;52.624;13.544;2023-09-19T12:43:01;71.42;61.21;86.03;;
18377;Laerm;9315;52.624;13.544;2023-09-19T12:45:31;70.92;66.11;82.00;;
18377;Laerm;9315;52.624;13.544;2023-09-19T12:48:26;72.84;65.34;98.23;;
18377;Laerm;9315;52.624;13.544;2023-09-19T12:51:11;71.39;58.34;83.93;;
18377;Laerm;9315;52.624;13.544;2023-09-19T12:53:45;68.98;51.16;78.53;;
18377;Laerm;9315;52.624;13.544;2023-09-19T12:56:16;68.34;52.52;86.34;;
18377;Laerm;9315;52.624;13.544;2023-09-19T12:58:58;68.79;48.98;77.37;;
18377;Laerm;9315;52.624;13.544;2023-09-19T13:01:29;68.65;53.85;77.82;;
18377;Laerm;9315;52.624;13.544;2023-09-19T13:04:21;70.94;47.73;89.18;;
18377;Laerm;9315;52.624;13.544;2023-09-19T13:06:59;67.29;48.18;75.12;;
18377;Laerm;9315;52.624;13.544;2023-09-19T13:09:31;69.64;52.70;77.85;;
18377;Laerm;9315;52.624;13.544;2023-09-19T13:12:03;68.17;50.13;76.12;;
18377;Laerm;9315;52.624;13.544;2023-09-19T13:14:31;68.58;51.97;76.34;;
18377;Laerm;9315;52.624;13.544;2023-09-19T13:17:06;69.88;55.19;76.65;;
18377;Laerm;9315;52.624;13.544;2023-09-19T13:19:50;70.29;58.49;78.88;;
18377;Laerm;9315;52.624;13.544;2023-09-19T13:22:43;68.97;49.35;85.89;;
18377;Laerm;9315;52.624;13.544;2023-09-19T13:25:22;70.29;52.61;78.89;;
18377;Laerm;9315;52.624;13.544;2023-09-19T13:27:55;69.67;48.53;78.68;;
18377;Laerm;9315;52.624;13.544;2023-09-19T13:30:27;69.66;50.51;82.27;;
18377;Laerm;9315;52.624;13.544;2023-09-19T13:33:11;68.03;51.80;78.29;;
18377;Laerm;9315;52.624;13.544;2023-09-19T13:35:41;69.23;54.87;77.87;;
18377;Laerm;9315;52.624;13.544;2023-09-19T13:38:08;69.59;50.95;80.31;;
18377;Laerm;9315;52.624;13.544;2023-09-19T13:40:40;69.28;54.13;79.71;;
18377;Laerm;9315;52.624;13.544;2023-09-19T13:43:09;68.69;50.47;77.88;;
18377;Laerm;9315;52.624;13.544;2023-09-19T13:45:40;70.92;50.39;84.50;;
18377;Laerm;9315;52.624;13.544;2023-09-19T13:48:09;69.18;50.91;77.25;;
18377;Laerm;9315;52.624;13.544;2023-09-19T13:50:38;68.83;50.99;78.02;;
18377;Laerm;9315;52.624;13.544;2023-09-19T13:53:09;68.87;48.98;80.49;;
18377;Laerm;9315;52.624;13.544;2023-09-19T13:55:39;70.40;52.98;90.00;;
18377;Laerm;9315;52.624;13.544;2023-09-19T13:58:07;69.62;49.85;79.22;;
18377;Laerm;9315;52.624;13.544;2023-09-19T14:00:36;70.80;51.38;83.68;;
18377;Laerm;9315;52.624;13.544;2023-09-19T14:03:08;68.27;51.00;84.30;;
18377;Laerm;9315;52.624;13.544;2023-09-19T14:05:38;69.42;51.81;77.68;;
18377;Laerm;9315;52.624;13.544;2023-09-19T14:08:05;69.94;51.80;81.38;;
18377;Laerm;9315;52.624;13.544;2023-09-19T14:10:32;69.38;51.98;82.75;;
18377;Laerm;9315;52.624;13.544;2023-09-19T14:13:00;71.19;53.73;86.75;;
18377;Laerm;9315;52.624;13.544;2023-09-19T14:15:28;69.36;48.24;78.59;;
18377;Laerm;9315;52.624;13.544;2023-09-19T14:17:59;69.57;50.81;77.49;;
18377;Laerm;9315;52.624;13.544;2023-09-19T14:20:28;70.25;54.05;78.97;;
18377;Laerm;9315;52.624;13.544;2023-09-19T14:22:56;67.95;47.67;77.19;;
18377;Laerm;9315;52.624;13.544;2023-09-19T14:25:25;68.81;51.41;79.68;;
18377;Laerm;9315;52.624;13.544;2023-09-19T14:27:52;68.79;51.48;76.17;;
18377;Laerm;9315;52.624;13.544;2023-09-19T14:30:19;69.88;51.22;82.81;;
18377;Laerm;9315;52.624;13.544;2023-09-19T14:32:48;68.87;49.08;79.94;;
18377;Laerm;9315;52.624;13.544;2023-09-19T14:35:15;68.51;49.47;76.18;;
18377;Laerm;9315;52.624;13.544;2023-09-19T14:37:43;69.74;48.74;79.85;;
18377;Laerm;9315;52.624;13.544;2023-09-19T14:40:12;68.74;48.93;78.40;;
18377;Laerm;9315;52.624;13.544;2023-09-19T14:42:44;67.53;48.73;76.02;;